Time;durP1;ratioP1;P1;durP2;ratioP2;P2;SDS_P1;SDS_P2;PMS_P1;PMS_P2;Temp;Humidity;BMP_temperature;BMP_pressure;BME280_temperature;BME280_humidity;BME280_pressure;Samples;Min_cycle;Max_cycle;Signal;HPM_P1;HPM_P2
2021/11/02 00:02:11;;;;;;;499.50;473.20;;;7.90;99.90;;;;;;4995784;28;20617;-82
2021/11/02 00:04:36;;;;;;;467.17;443.23;;;7.90;99.90;;;;;;4995944;28;20185;-81
2021/11/02 00:07:03;;;;;;;441.80;419.47;;;7.90;99.90;;;;;;4996045;28;20539;-81
2021/11/02 00:09:36;;;;;;;444.97;422.57;;;7.90;99.90;;;;;;4995780;28;20193;-81
2021/11/02 00:12:02;;;;;;;445.57;422.93;;;8.00;99.90;;;;;;4996631;28;20212;-81
2021/11/02 00:14:29;;;;;;;417.47;396.27;;;8.00;99.90;;;;;;5011991;28;20184;-81
2021/11/02 00:16:58;;;;;;;503.53;477.07;;;8.00;99.90;;;;;;5011889;28;20199;-81
2021/11/02 00:19:26;;;;;;;414.30;393.63;;;8.10;99.90;;;;;;4995472;28;20210;-81
2021/11/02 00:21:54;;;;;;;425.50;404.03;;;8.10;99.90;;;;;;5011809;28;20311;-81
2021/11/02 00:26:57;;;;;;;476.70;452.27;;;8.20;99.90;;;;;;5011718;28;20699;-81
2021/11/02 00:29:22;;;;;;;568.73;537.90;;;8.20;99.90;;;;;;5011182;28;20256;-81
2021/11/02 00:31:48;;;;;;;466.07;441.67;;;8.40;99.90;;;;;;5011260;28;20665;-81
2021/11/02 00:34:14;;;;;;;584.17;551.10;;;8.20;99.90;;;;;;4995187;28;20241;-82
2021/11/02 00:36:39;;;;;;;548.50;518.30;;;8.30;99.90;;;;;;4995155;28;20710;-81
2021/11/02 00:39:05;;;;;;;507.53;481.40;;;8.30;99.90;;;;;;4994635;28;20234;-81
2021/11/02 00:41:30;;;;;;;444.30;421.20;;;8.30;99.90;;;;;;4995158;28;20667;-81
2021/11/02 00:43:56;;;;;;;387.57;369.13;;;8.30;99.90;;;;;;4994987;28;20669;-81
2021/11/02 00:46:34;;;;;;;432.03;410.43;;;8.30;99.90;;;;;;4995118;28;20190;-81
2021/11/02 00:49:00;;;;;;;407.90;387.40;;;8.30;99.90;;;;;;4996438;28;20755;-81
2021/11/02 00:51:26;;;;;;;431.33;409.67;;;8.30;99.90;;;;;;4994769;28;20674;-81
2021/11/02 00:53:52;;;;;;;344.93;328.50;;;8.30;99.90;;;;;;4995289;28;20565;-81
2021/11/02 00:56:17;;;;;;;392.23;373.17;;;8.40;99.90;;;;;;4994751;28;20580;-81
2021/11/02 00:58:43;;;;;;;543.80;514.30;;;8.30;99.90;;;;;;4994781;28;20175;-81
2021/11/02 01:01:08;;;;;;;486.00;460.60;;;8.30;99.90;;;;;;4994767;28;20221;-82
2021/11/02 01:03:34;;;;;;;543.50;514.20;;;8.40;99.90;;;;;;4994284;28;20200;-81
2021/11/02 01:06:00;;;;;;;664.73;624.20;;;8.40;99.90;;;;;;5011035;28;20186;-81
2021/11/02 01:08:26;;;;;;;439.57;417.97;;;8.50;99.90;;;;;;4994525;28;20659;-81
2021/11/02 01:10:52;;;;;;;517.50;490.93;;;8.50;99.90;;;;;;5010975;28;20175;-81
2021/11/02 01:13:18;;;;;;;632.03;594.40;;;8.50;99.90;;;;;;4994215;28;20301;-81
2021/11/02 01:15:44;;;;;;;720.70;674.80;;;8.50;99.90;;;;;;5011067;28;20741;-81
2021/11/02 01:18:09;;;;;;;751.93;704.07;;;8.50;99.90;;;;;;4995188;28;20186;-81
2021/11/02 01:20:35;;;;;;;588.20;555.63;;;8.50;99.90;;;;;;5011224;28;20172;-81
2021/11/02 01:23:00;;;;;;;683.43;641.53;;;8.50;99.90;;;;;;4994218;28;20207;-81
2021/11/02 01:25:26;;;;;;;770.33;719.70;;;8.50;99.90;;;;;;4994476;28;20209;-81
2021/11/02 01:27:52;;;;;;;715.57;670.73;;;8.50;99.90;;;;;;4994103;28;20195;-81
2021/11/02 01:30:18;;;;;;;681.57;637.67;;;8.50;99.90;;;;;;5010978;28;20186;-81
2021/11/02 01:32:44;;;;;;;533.03;504.53;;;8.50;99.90;;;;;;5010793;28;20206;-81
2021/11/02 01:35:10;;;;;;;487.23;462.33;;;8.50;99.90;;;;;;5010444;28;20185;-81
2021/11/02 01:37:39;;;;;;;426.07;405.03;;;8.40;99.90;;;;;;4994365;28;20668;-81
2021/11/02 01:40:07;;;;;;;405.60;385.40;;;8.40;99.90;;;;;;4994841;28;20712;-81
2021/11/02 01:42:32;;;;;;;496.13;470.67;;;8.40;99.90;;;;;;4994818;28;20303;-81
2021/11/02 01:44:59;;;;;;;508.73;482.13;;;8.30;99.90;;;;;;5014614;28;20254;-81
2021/11/02 01:47:25;;;;;;;563.10;533.00;;;8.40;99.90;;;;;;4997971;28;20645;-81
2021/11/02 01:49:50;;;;;;;493.83;468.83;;;8.40;99.90;;;;;;4997489;28;20259;-81
2021/11/02 01:52:16;;;;;;;500.00;474.23;;;8.50;99.90;;;;;;4997510;28;20222;-81
2021/11/02 01:54:41;;;;;;;603.67;568.40;;;8.40;99.90;;;;;;4997792;28;20195;-81
2021/11/02 01:57:07;;;;;;;759.33;709.90;;;8.40;99.90;;;;;;4997447;28;20631;-81
2021/11/02 01:59:34;;;;;;;684.43;641.27;;;8.50;99.90;;;;;;4997328;28;20176;-81
2021/11/02 02:02:12;;;;;;;688.30;645.13;;;8.50;99.90;;;;;;5013910;28;20679;-81
2021/11/02 02:05:06;;;;;;;650.53;611.20;;;8.50;99.90;;;;;;5014076;28;20214;-81
2021/11/02 02:07:46;;;;;;;627.27;589.53;;;8.40;99.90;;;;;;5013612;28;20700;-81
2021/11/02 02:10:32;;;;;;;621.37;584.60;;;8.50;99.90;;;;;;4998169;28;20179;-81
2021/11/02 02:13:13;;;;;;;507.90;481.77;;;8.50;99.90;;;;;;5013620;28;20248;-81
2021/11/02 02:15:52;;;;;;;543.03;513.33;;;8.50;99.90;;;;;;5013219;28;20249;-82
2021/11/02 02:18:18;;;;;;;527.50;500.03;;;8.50;99.90;;;;;;4996995;28;20300;-81
2021/11/02 02:21:04;;;;;;;523.20;495.17;;;8.50;99.90;;;;;;4997381;28;20202;-81
2021/11/02 02:23:48;;;;;;;584.30;551.50;;;8.50;99.90;;;;;;4998004;28;20202;-81
2021/11/02 02:26:35;;;;;;;687.87;646.30;;;8.50;99.90;;;;;;4996996;28;20195;-81
2021/11/02 02:29:04;;;;;;;647.23;609.30;;;8.50;99.90;;;;;;5014259;28;20660;-81
2021/11/02 02:31:32;;;;;;;525.33;496.87;;;8.50;99.90;;;;;;4996969;28;20183;-81
2021/11/02 02:33:58;;;;;;;522.17;494.10;;;8.50;99.90;;;;;;5013276;28;20195;-81
2021/11/02 02:36:24;;;;;;;521.60;494.33;;;8.50;99.90;;;;;;5013066;28;20206;-81
2021/11/02 02:38:50;;;;;;;536.93;507.77;;;8.50;99.90;;;;;;4996452;28;20785;-81
2021/11/02 02:41:19;;;;;;;599.93;565.43;;;8.50;99.90;;;;;;4997308;28;20263;-81
2021/11/02 02:43:45;;;;;;;611.63;576.77;;;8.60;99.90;;;;;;5013465;28;20567;-81
2021/11/02 02:46:11;;;;;;;629.03;591.30;;;8.60;99.90;;;;;;4996661;28;20179;-81
2021/11/02 02:48:39;;;;;;;518.67;491.53;;;8.60;99.90;;;;;;4996373;28;20176;-81
2021/11/02 02:51:04;;;;;;;529.20;501.43;;;8.60;99.90;;;;;;4996480;28;20194;-81
2021/11/02 02:53:30;;;;;;;525.60;497.60;;;8.60;99.90;;;;;;4996565;28;20248;-81
2021/11/02 02:56:00;;;;;;;443.70;421.63;;;8.60;99.90;;;;;;4996618;28;20301;-81
2021/11/02 02:58:30;;;;;;;466.40;442.63;;;8.60;99.90;;;;;;4996956;28;20220;-81
2021/11/02 03:00:56;;;;;;;505.33;479.07;;;8.50;99.90;;;;;;4996653;28;20545;-81
2021/11/02 03:03:24;;;;;;;554.33;523.73;;;8.60;99.90;;;;;;4996075;28;20223;-81
2021/11/02 03:05:50;;;;;;;592.80;560.23;;;8.50;99.90;;;;;;5012998;28;20186;-81
2021/11/02 03:08:17;;;;;;;538.40;509.30;;;8.60;99.90;;;;;;4996193;28;20176;-81
2021/11/02 03:10:42;;;;;;;509.07;482.50;;;8.60;99.90;;;;;;4996363;28;20562;-81
2021/11/02 03:13:11;;;;;;;503.33;477.13;;;8.50;99.90;;;;;;4996144;28;20203;-81
2021/11/02 03:15:56;;;;;;;525.50;498.80;;;8.50;99.90;;;;;;4996460;28;20284;-81
2021/11/02 03:54:35;;;;;;;537.20;510.07;;;8.30;99.90;;;;;;5011649;28;20171;-81
2021/11/02 05:47:38;;;;;;;495.87;470.87;;;6.80;99.90;;;;;;5034306;28;20265;-82
2021/11/02 06:00:30;;;;;;;515.37;489.63;;;6.70;99.90;;;;;;4994600;28;20236;-82
2021/11/02 06:30:23;;;;;;;809.53;754.27;;;6.20;99.90;;;;;;4980785;28;20275;-80
2021/11/02 06:33:01;;;;;;;847.20;784.47;;;6.20;99.90;;;;;;4979518;28;20193;-82
2021/11/02 06:35:31;;;;;;;828.87;769.03;;;6.20;99.90;;;;;;4981122;28;20197;-83
2021/11/02 06:38:14;;;;;;;857.40;795.60;;;6.20;99.90;;;;;;4979304;28;20165;-82
2021/11/02 06:49:06;;;;;;;897.80;832.57;;;6.30;99.90;;;;;;5014845;28;20170;-82
2021/11/02 06:59:55;;;;;;;805.23;747.63;;;6.30;99.90;;;;;;5008372;28;20201;-87
2021/11/02 07:19:23;;;;;;;940.47;861.33;;;6.70;99.90;;;;;;5016111;28;20172;-80
2021/11/02 07:27:31;;;;;;;844.40;780.67;;;7.00;99.90;;;;;;5013542;28;20184;-79
2021/11/02 08:47:45;;;;;;;824.03;762.03;;;9.40;99.90;;;;;;5010364;28;20198;-78
2021/11/02 08:50:11;;;;;;;938.33;861.50;;;9.50;99.90;;;;;;4995310;28;20183;-78
2021/11/02 08:52:37;;;;;;;714.83;658.77;;;9.50;99.90;;;;;;4997707;28;20280;-79
2021/11/02 08:55:05;;;;;;;982.07;899.37;;;9.70;99.90;;;;;;4984912;28;20187;-79
2021/11/02 08:57:30;;;;;;;902.03;829.47;;;9.80;99.90;;;;;;5018805;28;20233;-79
2021/11/02 08:59:56;;;;;;;907.93;834.70;;;9.90;99.90;;;;;;5008868;28;20179;-79
2021/11/02 09:02:27;;;;;;;921.53;849.10;;;10.00;99.90;;;;;;4997479;28;20207;-78
2021/11/02 09:05:06;;;;;;;699.10;646.93;;;10.20;99.90;;;;;;5022879;28;20566;-79
2021/11/02 09:07:32;;;;;;;987.73;905.20;;;10.20;99.90;;;;;;5030617;28;20186;-78
2021/11/02 09:10:01;;;;;;;629.33;584.67;;;10.20;99.90;;;;;;5030813;28;20205;-78
2021/11/02 09:12:33;;;;;;;922.40;841.83;;;10.20;99.90;;;;;;5013453;28;20264;-79
2021/11/02 09:15:00;;;;;;;670.50;625.70;;;10.20;99.90;;;;;;5006773;28;20181;-78
2021/11/02 09:17:33;;;;;;;751.73;697.47;;;10.20;99.90;;;;;;5020997;28;20585;-78
2021/11/02 09:19:59;;;;;;;725.13;670.20;;;10.20;99.90;;;;;;5021370;28;20593;-78
2021/11/02 09:22:25;;;;;;;937.93;860.13;;;10.20;99.90;;;;;;5020360;28;20195;-80
2021/11/02 09:24:51;;;;;;;925.80;850.80;;;10.20;99.90;;;;;;5035623;28;20229;-78
2021/11/02 09:27:16;;;;;;;829.40;768.47;;;10.30;99.90;;;;;;5002570;28;20272;-79
2021/11/02 09:29:42;;;;;;;776.40;719.83;;;10.40;99.90;;;;;;5000656;28;20231;-78
2021/11/02 09:32:09;;;;;;;832.67;767.93;;;10.40;99.90;;;;;;5007734;28;20244;-78
2021/11/02 09:34:35;;;;;;;892.43;821.80;;;10.50;99.90;;;;;;5039629;28;20205;-78
2021/11/02 09:37:36;;;;;;;815.90;754.47;;;10.50;99.90;;;;;;5024737;28;20202;-79
2021/11/02 09:40:45;;;;;;;791.97;731.97;;;10.60;99.90;;;;;;5006036;28;20191;-79
2021/11/02 09:43:27;;;;;;;551.40;509.17;;;10.80;99.90;;;;;;5045338;28;20221;-78
2021/11/02 09:46:11;;;;;;;765.27;705.17;;;10.90;99.90;;;;;;5039768;28;20182;-79
2021/11/02 09:48:40;;;;;;;632.07;585.53;;;10.90;99.90;;;;;;5043024;28;20181;-80
2021/11/02 09:51:42;;;;;;;536.13;497.50;;;10.90;99.90;;;;;;5032416;28;20209;-80
2021/11/02 09:54:34;;;;;;;476.27;441.07;;;10.90;99.90;;;;;;5019544;28;20285;-81
2021/11/02 09:57:15;;;;;;;345.10;318.40;;;11.10;99.90;;;;;;5020390;28;20208;-81
2021/11/02 10:00:02;;;;;;;294.40;273.83;;;11.30;99.90;;;;;;5019866;28;20182;-82
2021/11/02 10:02:49;;;;;;;779.77;718.77;;;11.40;99.90;;;;;;5018480;28;20219;-82
2021/11/02 10:05:48;;;;;;;641.13;592.43;;;11.50;99.90;;;;;;5034394;28;20183;-82
2021/11/02 10:08:39;;;;;;;221.60;207.67;;;11.70;99.90;;;;;;5020192;28;20171;-83
2021/11/02 10:11:24;;;;;;;85.07;80.90;;;11.80;99.90;;;;;;5022276;28;20180;-82
2021/11/02 10:14:04;;;;;;;419.93;395.13;;;12.20;99.90;;;;;;5005654;28;20195;-84
2021/11/02 10:17:02;;;;;;;122.63;116.23;;;12.50;99.90;;;;;;5020803;28;20207;-79
2021/11/02 10:20:04;;;;;;;44.20;41.40;;;12.80;99.90;;;;;;5029393;28;20239;-80
2021/11/02 10:22:49;;;;;;;124.07;117.20;;;13.10;99.90;;;;;;5018737;28;20199;-78
2021/11/02 10:25:34;;;;;;;90.93;85.63;;;13.10;99.90;;;;;;5017546;28;20172;-79
2021/11/02 10:28:02;;;;;;;174.83;165.13;;;13.00;99.90;;;;;;5003399;28;20207;-79
2021/11/02 10:30:33;;;;;;;152.07;142.47;;;13.00;99.90;;;;;;5015506;28;20274;-80
2021/11/02 10:33:06;;;;;;;123.13;116.23;;;13.10;99.90;;;;;;4997023;28;20337;-79
2021/11/02 10:35:57;;;;;;;270.13;253.87;;;13.10;99.90;;;;;;5015236;28;20666;-80
2021/11/02 10:38:56;;;;;;;114.40;107.80;;;13.10;99.90;;;;;;4997943;28;20243;-80
2021/11/02 10:41:26;;;;;;;255.07;240.97;;;12.90;99.90;;;;;;5014167;28;20639;-80
2021/11/02 10:44:00;;;;;;;281.73;265.67;;;12.90;99.90;;;;;;4983679;28;20290;-80
2021/11/02 10:46:34;;;;;;;157.20;148.30;;;12.70;99.90;;;;;;5015184;28;20685;-80
2021/11/02 10:49:09;;;;;;;191.90;179.73;;;12.70;99.90;;;;;;5013838;28;20176;-80
2021/11/02 10:51:38;;;;;;;249.47;234.50;;;12.50;99.90;;;;;;4996173;28;20275;-80
2021/11/02 10:54:17;;;;;;;277.70;260.70;;;12.30;99.90;;;;;;5014780;28;20211;-80
2021/11/02 10:57:10;;;;;;;251.10;235.03;;;12.30;99.90;;;;;;4999473;28;20215;-79
2021/11/02 10:59:41;;;;;;;219.33;206.87;;;12.30;99.90;;;;;;5015044;28;20274;-80
2021/11/02 11:02:06;;;;;;;269.37;253.17;;;12.20;99.90;;;;;;5000068;28;20766;-79
2021/11/02 11:04:33;;;;;;;181.77;171.03;;;12.20;99.90;;;;;;5015067;28;20263;-81
2021/11/02 11:06:58;;;;;;;83.60;79.07;;;12.20;99.90;;;;;;5001272;28;20587;-82
2021/11/02 11:09:25;;;;;;;123.03;115.10;;;12.20;99.90;;;;;;5020667;28;20179;-83
2021/11/02 11:11:54;;;;;;;293.37;274.60;;;12.10;99.90;;;;;;5020744;28;20186;-82
2021/11/02 11:14:20;;;;;;;118.27;110.83;;;12.10;99.90;;;;;;5019305;28;20187;-82
2021/11/02 11:16:47;;;;;;;234.73;220.03;;;12.10;99.90;;;;;;5016799;28;20210;-83
2021/11/02 11:19:37;;;;;;;237.30;222.20;;;12.10;99.90;;;;;;5017669;28;20183;-83
2021/11/02 11:22:03;;;;;;;234.30;220.30;;;12.10;99.90;;;;;;5019658;28;20190;-82
2021/11/02 11:24:43;;;;;;;187.83;177.53;;;12.10;99.90;;;;;;5018246;28;20261;-82
2021/11/02 11:27:09;;;;;;;221.13;206.73;;;12.10;99.90;;;;;;5018201;28;20179;-81
2021/11/02 11:29:37;;;;;;;80.30;76.07;;;12.30;99.90;;;;;;5018307;28;20553;-83
2021/11/02 11:32:03;;;;;;;384.90;357.77;;;12.50;99.90;;;;;;5007140;28;20229;-84
2021/11/02 11:34:33;;;;;;;119.77;112.80;;;12.60;99.90;;;;;;4986634;28;20232;-82
2021/11/02 11:36:59;;;;;;;78.67;74.67;;;12.60;99.90;;;;;;4995273;28;20204;-82
2021/11/02 11:40:53;;;;;;;67.33;64.10;;;12.60;99.90;;;;;;5071572;27;20563;-82
2021/11/02 11:43:18;;;;;;;57.73;54.60;;;12.70;99.90;;;;;;5031593;28;20210;-82
2021/11/02 11:45:52;;;;;;;61.53;58.47;;;12.60;99.90;;;;;;5047884;28;20623;-81
2021/11/02 11:48:21;;;;;;;71.67;68.30;;;12.40;99.90;;;;;;5055190;28;20197;-82
2021/11/02 11:50:47;;;;;;;381.00;352.73;;;12.40;99.90;;;;;;5038274;28;20193;-83
2021/11/02 11:53:16;;;;;;;387.47;362.23;;;12.30;99.90;;;;;;5055024;28;20646;-82
2021/11/02 11:55:44;;;;;;;64.13;60.70;;;12.20;99.90;;;;;;5055239;28;20208;-81
2021/11/02 11:58:14;;;;;;;290.47;270.80;;;12.30;99.90;;;;;;5055022;28;20177;-83
2021/11/02 12:00:54;;;;;;;192.67;180.73;;;12.30;99.90;;;;;;5079126;28;20212;-83
2021/11/02 12:03:58;;;;;;;64.13;60.60;;;12.30;99.90;;;;;;5037581;28;20173;-81
2021/11/02 12:06:50;;;;;;;120.97;113.57;;;12.20;99.90;;;;;;5059573;28;20595;-81
2021/11/02 12:09:21;;;;;;;81.13;76.57;;;12.30;99.90;;;;;;5069783;28;20219;-81
2021/11/02 12:11:47;;;;;;;73.40;69.90;;;12.20;99.90;;;;;;5037733;28;20285;-79
2021/11/02 12:14:20;;;;;;;89.00;84.63;;;12.60;99.90;;;;;;5027458;28;20261;-81
2021/11/02 12:16:46;;;;;;;218.10;203.00;;;12.00;99.90;;;;;;5034733;28;20252;-79
2021/11/02 12:19:23;;;;;;;130.03;121.43;;;11.90;99.90;;;;;;5033808;28;20222;-81
2021/11/02 12:22:05;;;;;;;243.87;227.17;;;11.90;99.90;;;;;;5034019;28;20293;-82
2021/11/02 12:24:38;;;;;;;109.57;103.37;;;11.90;99.90;;;;;;5084202;28;20181;-79
2021/11/02 12:27:17;;;;;;;164.43;155.27;;;11.90;99.90;;;;;;5075053;28;20212;-81
2021/11/02 12:29:47;;;;;;;190.27;178.30;;;11.90;99.90;;;;;;5058440;28;20208;-80
2021/11/02 12:32:15;;;;;;;281.27;261.93;;;11.90;99.90;;;;;;5057649;28;20212;-80
2021/11/02 12:34:47;;;;;;;167.77;156.23;;;12.00;99.90;;;;;;5074027;28;20180;-82
2021/11/02 12:37:13;;;;;;;80.73;75.90;;;11.90;99.90;;;;;;5073921;28;20173;-80
2021/11/02 12:39:39;;;;;;;58.87;55.93;;;12.10;99.90;;;;;;5057308;28;20638;-80
2021/11/02 12:42:05;;;;;;;195.17;182.07;;;12.00;99.90;;;;;;5057728;28;20177;-81
2021/11/02 12:44:35;;;;;;;241.30;225.13;;;12.00;99.90;;;;;;5057608;28;20661;-81
2021/11/02 12:47:02;;;;;;;312.03;291.50;;;11.90;99.90;;;;;;5056249;28;20770;-81
2021/11/02 12:49:54;;;;;;;345.07;320.67;;;11.90;99.90;;;;;;5073069;28;20204;-80
2021/11/02 12:52:24;;;;;;;259.43;242.03;;;11.90;99.90;;;;;;5060268;28;20207;-80
2021/11/02 12:55:03;;;;;;;426.90;397.00;;;11.90;99.90;;;;;;5061428;28;20686;-80
2021/11/02 12:57:34;;;;;;;156.80;147.03;;;11.90;99.90;;;;;;5043356;28;20182;-81
2021/11/02 13:00:00;;;;;;;208.83;195.53;;;11.90;99.90;;;;;;5058572;28;20379;-82
2021/11/02 13:02:35;;;;;;;277.27;259.23;;;11.70;99.90;;;;;;5054845;28;20301;-86
2021/11/02 13:05:02;;;;;;;204.57;190.70;;;11.90;99.90;;;;;;5057231;28;20173;-84
2021/11/02 13:07:34;;;;;;;408.40;381.60;;;11.70;99.90;;;;;;5057671;28;20181;-87
2021/11/02 13:09:59;;;;;;;332.20;310.97;;;11.80;99.90;;;;;;5021686;28;20206;-86
2021/11/02 13:12:26;;;;;;;240.37;223.33;;;11.80;99.90;;;;;;5020525;28;20555;-87
2021/11/02 13:14:52;;;;;;;188.10;176.30;;;11.70;99.90;;;;;;5020914;28;20181;-88
2021/11/02 13:17:24;;;;;;;146.23;136.73;;;11.80;99.90;;;;;;5020722;28;20178;-87
2021/11/02 13:19:51;;;;;;;214.53;200.37;;;11.60;99.90;;;;;;5020816;28;20210;-85
2021/11/02 13:22:21;;;;;;;290.90;270.67;;;11.70;99.90;;;;;;5021576;28;20202;-84
2021/11/02 13:25:03;;;;;;;410.73;380.30;;;11.70;99.90;;;;;;5024125;28;20174;-85
2021/11/02 13:27:47;;;;;;;430.17;400.03;;;11.70;99.90;;;;;;5038967;28;20231;-88
2021/11/02 13:30:25;;;;;;;230.23;214.70;;;11.60;99.90;;;;;;5026400;28;20297;-87
2021/11/02 13:33:06;;;;;;;174.47;163.07;;;11.60;99.90;;;;;;5036813;28;20178;-86
2021/11/02 13:35:47;;;;;;;244.37;227.53;;;11.50;99.90;;;;;;5053990;28;20646;-87
2021/11/02 13:38:22;;;;;;;188.03;176.43;;;11.50;99.90;;;;;;5052557;28;20673;-87
2021/11/02 13:40:48;;;;;;;329.70;306.60;;;11.50;99.90;;;;;;5040951;28;20611;-87
2021/11/02 13:43:28;;;;;;;236.03;220.67;;;11.50;99.90;;;;;;5040928;28;20176;-87
2021/11/02 13:45:54;;;;;;;131.10;123.27;;;11.40;99.90;;;;;;5042141;28;20169;-87
2021/11/02 13:48:20;;;;;;;230.33;215.07;;;11.40;99.90;;;;;;5023254;28;20178;-87
2021/11/02 13:50:46;;;;;;;340.43;317.50;;;11.50;99.90;;;;;;5019785;28;20202;-87
2021/11/02 13:53:12;;;;;;;378.17;352.17;;;11.50;99.90;;;;;;5020200;28;20185;-86
2021/11/02 13:55:37;;;;;;;160.33;149.63;;;11.50;99.90;;;;;;5020024;28;20592;-86
2021/11/02 13:58:03;;;;;;;290.77;271.97;;;11.50;99.90;;;;;;5035965;28;20186;-84
2021/11/02 14:00:29;;;;;;;378.10;353.50;;;11.90;99.90;;;;;;5022146;28;20216;-87
2021/11/02 14:02:56;;;;;;;116.20;109.37;;;11.50;99.90;;;;;;5015934;28;20694;-84
2021/11/02 14:05:21;;;;;;;128.63;119.90;;;11.50;99.90;;;;;;5000183;28;20667;-84
2021/11/02 14:07:47;;;;;;;328.63;308.07;;;11.40;99.90;;;;;;4999243;28;20182;-86
2021/11/02 14:10:12;;;;;;;241.73;226.13;;;11.40;99.90;;;;;;4999391;28;20206;-86
2021/11/02 14:12:52;;;;;;;561.47;522.23;;;11.40;99.90;;;;;;5015365;28;20189;-86
2021/11/02 14:15:24;;;;;;;221.07;207.17;;;11.30;99.90;;;;;;5026385;28;20194;-85
2021/11/02 14:17:52;;;;;;;52.47;49.50;;;11.40;99.90;;;;;;5015745;28;20182;-83
2021/11/02 14:20:36;;;;;;;167.87;156.47;;;11.40;99.90;;;;;;5034064;28;20688;-87
2021/11/02 14:23:03;;;;;;;167.30;156.57;;;11.40;99.90;;;;;;5031973;28;20183;-84
2021/11/02 14:25:39;;;;;;;308.70;288.13;;;11.40;99.90;;;;;;5013474;28;20660;-86
2021/11/02 14:28:05;;;;;;;265.20;247.33;;;11.40;99.90;;;;;;5041304;28;20767;-86
2021/11/02 14:30:31;;;;;;;267.57;248.67;;;11.40;99.90;;;;;;5010966;28;20283;-87
2021/11/02 14:32:57;;;;;;;457.60;425.40;;;11.40;99.90;;;;;;5038562;28;20236;-86
2021/11/02 14:35:36;;;;;;;234.97;219.53;;;11.40;99.90;;;;;;5006881;28;20185;-86
2021/11/02 14:38:12;;;;;;;255.50;237.70;;;11.50;99.90;;;;;;5015774;28;20253;-87
2021/11/02 14:40:39;;;;;;;276.63;257.73;;;11.50;99.90;;;;;;5032896;28;20210;-84
2021/11/02 14:43:14;;;;;;;245.77;228.17;;;11.50;99.90;;;;;;5014624;28;20179;-85
2021/11/02 14:45:40;;;;;;;343.63;320.37;;;11.50;99.90;;;;;;5045885;28;20174;-85
2021/11/02 14:48:24;;;;;;;214.73;201.57;;;11.50;99.90;;;;;;5039050;28;20205;-85
2021/11/02 14:50:54;;;;;;;238.27;223.37;;;11.40;99.90;;;;;;5044328;28;20252;-80
2021/11/02 14:53:29;;;;;;;352.03;328.87;;;11.40;99.90;;;;;;5033019;28;20258;-83
2021/11/02 14:55:58;;;;;;;246.80;230.63;;;11.40;99.90;;;;;;5031961;28;20190;-81
2021/11/02 14:58:39;;;;;;;384.13;358.33;;;11.40;99.90;;;;;;5031184;28;20649;-82
2021/11/02 15:01:12;;;;;;;397.20;369.63;;;11.30;99.90;;;;;;5031934;28;20191;-81
2021/11/02 15:04:01;;;;;;;251.90;234.13;;;11.30;99.90;;;;;;5015075;28;20175;-82
2021/11/02 15:06:40;;;;;;;159.67;150.83;;;11.30;99.90;;;;;;5027985;28;20277;-80
2021/11/02 15:09:17;;;;;;;272.80;255.57;;;11.30;99.90;;;;;;5014615;28;20202;-81
2021/11/02 15:11:46;;;;;;;225.70;210.90;;;11.20;99.90;;;;;;5015162;28;20189;-82
2021/11/02 15:14:25;;;;;;;283.50;265.73;;;11.10;99.90;;;;;;5014543;28;20218;-82
2021/11/02 15:16:56;;;;;;;423.47;394.13;;;11.20;99.90;;;;;;5016223;28;20584;-82
2021/11/02 15:19:23;;;;;;;517.80;481.43;;;11.00;99.90;;;;;;5014974;28;20306;-82
2021/11/02 15:21:56;;;;;;;457.70;427.93;;;11.00;99.90;;;;;;5014400;28;20178;-82
2021/11/02 15:24:23;;;;;;;545.17;506.10;;;11.00;99.90;;;;;;5014692;28;20222;-82
2021/11/02 15:26:50;;;;;;;512.00;475.60;;;11.00;99.90;;;;;;5014547;28;20186;-82
2021/11/02 15:29:17;;;;;;;661.90;612.33;;;10.90;99.90;;;;;;5014097;28;20206;-81
2021/11/02 15:31:57;;;;;;;662.20;614.37;;;10.90;99.90;;;;;;5014497;28;20189;-83
2021/11/02 15:34:22;;;;;;;545.60;504.90;;;10.80;99.90;;;;;;5030792;28;20166;-82
2021/11/02 15:36:48;;;;;;;839.67;774.50;;;10.90;99.90;;;;;;5014370;28;20281;-81
2021/11/02 15:39:13;;;;;;;991.97;901.77;;;10.80;99.90;;;;;;5013886;28;20218;-81
2021/11/02 15:41:39;;;;;;;765.47;712.57;;;10.70;99.90;;;;;;5014327;28;20269;-83
2021/11/02 15:44:07;;;;;;;1043.30;943.80;;;10.60;99.90;;;;;;5014698;28;20258;-82
2021/11/02 15:46:41;;;;;;;794.47;736.77;;;10.60;99.90;;;;;;5055547;28;20643;-82
2021/11/02 15:49:09;;;;;;;814.57;755.13;;;10.50;99.90;;;;;;5037477;28;20213;-83
2021/11/02 15:51:39;;;;;;;746.63;691.07;;;10.50;99.90;;;;;;5037862;28;20595;-82
2021/11/02 15:54:17;;;;;;;719.27;668.00;;;10.50;99.90;;;;;;5037681;28;20562;-82
2021/11/02 15:56:43;;;;;;;695.87;645.37;;;10.60;99.90;;;;;;5039811;28;20265;-82
2021/11/02 15:59:09;;;;;;;750.97;697.17;;;10.70;99.90;;;;;;5037608;28;20308;-82
2021/11/02 16:01:37;;;;;;;780.70;721.57;;;10.60;99.90;;;;;;5037243;28;20177;-82
2021/11/02 16:04:11;;;;;;;812.80;753.83;;;10.60;99.90;;;;;;5037751;28;20211;-82
2021/11/02 16:06:51;;;;;;;790.90;729.33;;;10.50;99.90;;;;;;5037672;28;20269;-81
2021/11/02 16:09:17;;;;;;;839.13;773.90;;;10.50;99.90;;;;;;5054133;28;20215;-83
2021/11/02 16:11:42;;;;;;;899.90;827.43;;;10.40;99.90;;;;;;5037335;28;20182;-81
2021/11/02 16:14:08;;;;;;;853.13;785.00;;;10.50;99.90;;;;;;5039093;28;20231;-79
2021/11/02 16:16:35;;;;;;;972.33;882.67;;;10.40;99.90;;;;;;5029566;28;20276;-78
2021/11/02 16:19:01;;;;;;;971.60;880.90;;;10.30;99.90;;;;;;5015304;28;20224;-80
2021/11/02 16:21:32;;;;;;;957.17;875.40;;;10.30;99.90;;;;;;5016223;28;20182;-80
2021/11/02 16:24:04;;;;;;;971.10;880.83;;;10.30;99.90;;;;;;5033960;28;20183;-81
2021/11/02 16:26:30;;;;;;;1044.53;945.37;;;10.20;99.90;;;;;;5009151;28;20176;-81
2021/11/02 16:29:12;;;;;;;979.27;887.97;;;10.20;99.90;;;;;;5019782;28;20190;-80
2021/11/02 16:31:38;;;;;;;936.23;856.03;;;10.20;99.90;;;;;;5041695;28;20233;-78
2021/11/02 16:34:14;;;;;;;981.63;894.63;;;10.20;99.90;;;;;;5036008;28;20583;-79
2021/11/02 16:36:40;;;;;;;878.37;805.90;;;10.10;99.90;;;;;;5028456;28;20201;-82
2021/11/02 16:39:15;;;;;;;948.30;866.90;;;10.10;99.90;;;;;;5025843;28;20247;-80
2021/11/02 16:41:43;;;;;;;942.13;861.57;;;10.10;99.90;;;;;;5070951;28;20622;-81
2021/11/02 16:44:11;;;;;;;990.03;900.33;;;10.20;99.90;;;;;;5046451;28;20259;-81
2021/11/02 16:46:39;;;;;;;961.73;873.43;;;10.10;99.90;;;;;;5023584;28;20227;-80
2021/11/02 16:49:11;;;;;;;922.73;845.50;;;10.10;99.90;;;;;;5021710;28;20205;-79
2021/11/02 16:51:53;;;;;;;872.40;805.93;;;10.00;99.90;;;;;;5055048;28;20166;-81
2021/11/02 16:54:44;;;;;;;845.57;783.13;;;10.00;99.90;;;;;;5040415;28;20624;-78
2021/11/02 16:57:22;;;;;;;817.03;756.63;;;9.90;99.90;;;;;;5055445;28;20213;-79
2021/11/02 17:00:05;;;;;;;877.23;809.90;;;9.90;99.90;;;;;;5023562;28;20311;-80
2021/11/02 17:02:30;;;;;;;835.47;771.87;;;10.00;99.90;;;;;;5053965;28;20163;-80
2021/11/02 17:05:12;;;;;;;850.07;786.93;;;9.90;99.90;;;;;;5055886;28;20271;-81
2021/11/02 17:07:39;;;;;;;858.07;792.17;;;10.00;99.90;;;;;;5039906;28;20272;-79
2021/11/02 17:10:26;;;;;;;907.57;831.73;;;10.00;99.90;;;;;;5055087;28;20232;-80
2021/11/02 17:13:03;;;;;;;986.20;896.87;;;10.00;99.90;;;;;;5054885;28;20258;-80
2021/11/02 17:15:47;;;;;;;984.20;888.20;;;10.10;99.90;;;;;;5054339;28;20155;-80
2021/11/02 17:18:15;;;;;;;928.43;848.90;;;10.10;99.90;;;;;;5039746;28;20224;-80
2021/11/02 17:20:44;;;;;;;949.77;873.30;;;10.20;99.90;;;;;;5022005;28;20228;-80
2021/11/02 17:23:10;;;;;;;971.60;875.63;;;10.10;99.90;;;;;;5038256;28;20177;-81
2021/11/02 17:25:36;;;;;;;718.47;661.97;;;10.10;99.90;;;;;;5021987;28;20192;-80
2021/11/02 17:28:02;;;;;;;1053.63;952.07;;;10.20;99.90;;;;;;5021668;28;20186;-80
2021/11/02 17:30:31;;;;;;;864.80;796.87;;;10.20;99.90;;;;;;5021813;28;20695;-80
2021/11/02 17:32:57;;;;;;;702.30;648.93;;;10.20;99.90;;;;;;5021657;28;20327;-81
2021/11/02 17:35:23;;;;;;;816.20;752.97;;;10.20;99.90;;;;;;5022190;28;20738;-80
2021/11/02 17:38:00;;;;;;;759.30;700.33;;;10.10;99.90;;;;;;5052483;28;20181;-80
2021/11/02 17:40:26;;;;;;;900.07;825.17;;;10.20;99.90;;;;;;5056120;28;20221;-80
2021/11/02 17:42:57;;;;;;;975.97;892.47;;;10.20;99.90;;;;;;5034560;28;20180;-81